createdAt,value
2018-12-10T00:00:37.569Z,3.20
2018-12-10T00:03:12.575Z,4.13
2018-12-10T00:05:41.510Z,3.60
2018-12-10T00:08:10.591Z,3.27
2018-12-10T00:10:41.735Z,3.00
2018-12-10T00:13:10.224Z,3.40
2018-12-10T00:15:38.673Z,3.37
2018-12-10T00:18:07.167Z,3.57
2018-12-10T00:20:36.709Z,2.73
2018-12-10T00:23:05.667Z,2.77
2018-12-10T00:25:34.102Z,2.97
2018-12-10T00:28:03.182Z,3.27
2018-12-10T00:30:32.301Z,2.90
2018-12-10T00:33:01.673Z,2.60
2018-12-10T00:35:31.119Z,2.47
2018-12-10T00:37:59.807Z,2.70
2018-12-10T00:40:28.238Z,2.50
2018-12-10T00:42:57.843Z,2.90
2018-12-10T00:45:26.281Z,2.67
2018-12-10T00:47:55.854Z,2.87
2018-12-10T00:50:25.191Z,2.00
2018-12-10T00:52:53.802Z,2.50
2018-12-10T00:55:22.877Z,2.17
2018-12-10T00:57:52.687Z,2.00
2018-12-10T01:00:21.399Z,2.43
2018-12-10T01:02:51.122Z,2.00
2018-12-10T01:05:20.266Z,2.27
2018-12-10T01:07:50.196Z,2.20
2018-12-10T01:10:18.876Z,2.27
2018-12-10T01:12:48.207Z,2.40
2018-12-10T01:15:17.058Z,1.80
2018-12-10T01:17:45.918Z,1.80
2018-12-10T01:20:14.754Z,1.70
2018-12-10T01:22:43.603Z,1.87
2018-12-10T01:25:12.061Z,2.00
2018-12-10T01:27:41.563Z,1.90
2018-12-10T01:30:09.829Z,1.70
2018-12-10T01:32:38.527Z,2.00
2018-12-10T01:35:09.294Z,1.90
2018-12-10T01:37:37.753Z,1.87
2018-12-10T01:40:06.510Z,1.97
2018-12-10T01:42:35.409Z,2.03
2018-12-10T01:45:05.573Z,2.50
2018-12-10T01:47:35.149Z,2.70
2018-12-10T01:50:04.085Z,3.33
2018-12-10T01:52:33.670Z,2.03
2018-12-10T01:55:02.521Z,2.80
2018-12-10T01:57:33.898Z,2.20
2018-12-10T02:00:02.482Z,2.40
2018-12-10T02:02:30.908Z,2.60
2018-12-10T02:05:00.113Z,2.70
2018-12-10T02:07:30.148Z,2.50
2018-12-10T02:09:58.606Z,2.83
2018-12-10T02:12:27.442Z,2.87
2018-12-10T02:14:56.292Z,2.93
2018-12-10T02:17:25.667Z,3.30
2018-12-10T02:19:54.937Z,2.80
2018-12-10T02:22:24.321Z,3.13
2018-12-10T02:24:53.674Z,3.13
2018-12-10T02:27:26.976Z,3.33
2018-12-10T02:29:56.395Z,4.10
2018-12-10T02:32:25.900Z,3.23
2018-12-10T02:34:54.761Z,3.17
2018-12-10T02:37:24.245Z,3.97
2018-12-10T02:39:53.841Z,3.23
2018-12-10T02:42:22.602Z,3.43
2018-12-10T02:44:53.747Z,3.53
2018-12-10T02:47:23.144Z,3.57
2018-12-10T02:49:53.125Z,3.73
2018-12-10T02:52:21.838Z,3.53
2018-12-10T02:54:50.490Z,3.00
2018-12-10T02:57:19.427Z,3.83
2018-12-10T02:59:48.281Z,2.60
2018-12-10T03:02:16.951Z,3.30
2018-12-10T03:04:45.732Z,3.10
2018-12-10T03:07:14.288Z,2.40
2018-12-10T03:09:43.389Z,2.20
2018-12-10T03:12:11.855Z,2.03
2018-12-10T03:14:41.101Z,2.03
2018-12-10T03:17:09.821Z,1.93
2018-12-10T03:19:40.567Z,1.80
2018-12-10T03:22:09.300Z,1.67
2018-12-10T03:24:39.992Z,1.90
2018-12-10T03:27:09.383Z,2.27
2018-12-10T03:29:37.805Z,1.70
2018-12-10T03:32:06.996Z,2.23
2018-12-10T03:34:35.656Z,2.00
2018-12-10T03:37:06.074Z,2.27
2018-12-10T03:39:35.467Z,2.17
2018-12-10T03:42:05.073Z,2.33
2018-12-10T03:44:34.225Z,2.17
2018-12-10T03:47:05.356Z,2.30
2018-12-10T03:49:34.934Z,2.40
2018-12-10T03:52:03.896Z,2.73
2018-12-10T03:54:33.590Z,2.90
2018-12-10T03:57:02.561Z,2.50
2018-12-10T03:59:34.951Z,3.13
2018-12-10T04:02:05.016Z,2.57
2018-12-10T04:04:38.156Z,2.80
2018-12-10T04:07:08.527Z,2.83
2018-12-10T04:09:38.874Z,3.53
2018-12-10T04:12:07.776Z,3.37
2018-12-10T04:14:37.558Z,2.90
2018-12-10T04:17:06.409Z,2.80
2018-12-10T04:19:38.386Z,2.93
2018-12-10T04:22:08.021Z,3.23
2018-12-10T04:24:36.899Z,3.10
2018-12-10T04:27:05.730Z,2.67
2018-12-10T04:29:34.676Z,2.20
2018-12-10T04:32:04.048Z,2.70
2018-12-10T04:34:34.171Z,3.07
2018-12-10T04:37:04.171Z,2.47
2018-12-10T04:39:33.268Z,2.67
2018-12-10T04:42:02.422Z,2.60
2018-12-10T04:44:32.056Z,2.87
2018-12-10T04:47:00.845Z,2.63
2018-12-10T04:49:29.719Z,2.37
2018-12-10T04:51:58.799Z,2.63
2018-12-10T04:54:27.643Z,2.60
2018-12-10T04:56:56.640Z,2.63
2018-12-10T04:59:26.140Z,2.70
2018-12-10T05:01:55.801Z,2.60
2018-12-10T05:04:24.314Z,2.70
2018-12-10T05:06:53.901Z,2.27
2018-12-10T05:09:22.806Z,2.30
2018-12-10T05:11:51.699Z,2.53
2018-12-10T05:14:21.406Z,2.60
2018-12-10T05:16:50.222Z,2.60
2018-12-10T05:19:19.733Z,2.47
2018-12-10T05:21:48.798Z,2.60
2018-12-10T05:24:17.207Z,2.87
2018-12-10T05:26:45.652Z,2.33
2018-12-10T05:29:14.323Z,2.73
2018-12-10T05:31:43.975Z,2.83
2018-12-10T05:34:14.380Z,2.93
2018-12-10T05:36:44.569Z,2.60
2018-12-10T05:39:14.396Z,2.60
2018-12-10T05:41:44.250Z,2.50
2018-12-10T05:44:12.985Z,2.17
2018-12-10T05:46:42.764Z,2.27
2018-12-10T05:49:11.188Z,2.47
2018-12-10T05:51:40.226Z,2.23
2018-12-10T05:54:09.684Z,2.63
2018-12-10T05:56:39.857Z,2.50
2018-12-10T05:59:09.721Z,2.97
2018-12-10T06:01:38.280Z,2.60
2018-12-10T06:04:07.095Z,2.33
2018-12-10T06:06:36.735Z,2.90
2018-12-10T06:09:07.270Z,2.77
2018-12-10T06:11:36.647Z,2.90
2018-12-10T06:14:05.083Z,2.57
2018-12-10T06:16:35.610Z,2.53
2018-12-10T06:19:04.365Z,2.87
2018-12-10T06:21:32.889Z,2.00
2018-12-10T06:24:02.280Z,2.60
2018-12-10T06:26:31.721Z,3.00
2018-12-10T06:29:00.426Z,2.60
2018-12-10T06:31:29.132Z,2.63
2018-12-10T06:33:58.285Z,2.20
2018-12-10T06:36:27.986Z,2.53
2018-12-10T06:38:57.150Z,2.27
2018-12-10T06:41:26.366Z,2.17
2018-12-10T06:43:54.825Z,2.30
2018-12-10T06:46:24.068Z,2.13
2018-12-10T06:48:53.350Z,2.07
2018-12-10T06:51:22.485Z,2.17
2018-12-10T06:53:51.766Z,2.77
2018-12-10T06:56:22.669Z,1.97
2018-12-10T06:58:58.516Z,2.10
2018-12-10T07:01:28.287Z,2.37
2018-12-10T07:03:57.612Z,2.20
2018-12-10T07:06:26.942Z,2.00
2018-12-10T07:08:57.471Z,2.07
2018-12-10T07:11:37.861Z,1.60
2018-12-10T07:14:07.125Z,1.57
2018-12-10T07:16:36.478Z,1.70
2018-12-10T07:19:09.615Z,1.80
2018-12-10T07:21:39.199Z,1.70
2018-12-10T07:24:09.160Z,1.87
2018-12-10T07:26:48.026Z,2.00
2018-12-10T07:29:18.705Z,2.30
2018-12-10T07:31:52.346Z,3.07
2018-12-10T07:34:21.093Z,2.40
2018-12-10T07:36:51.777Z,2.60
2018-12-10T07:41:58.429Z,2.63
2018-12-10T07:44:29.694Z,2.80
2018-12-10T07:47:03.054Z,3.10
2018-12-10T07:49:33.695Z,2.80
2018-12-10T07:52:04.706Z,2.83
2018-12-10T07:54:33.374Z,2.87
2018-12-10T07:57:06.061Z,3.00
2018-12-10T07:59:42.765Z,2.50
2018-12-10T08:02:11.973Z,3.00
2018-12-10T08:04:47.815Z,2.50
2018-12-10T08:07:20.031Z,2.40
2018-12-10T08:09:50.577Z,2.77
2018-12-10T08:12:20.318Z,2.57
2018-12-10T08:14:48.974Z,2.63
2018-12-10T08:17:17.802Z,1.90
2018-12-10T08:19:46.357Z,2.20
2018-12-10T08:22:15.678Z,2.60
2018-12-10T08:24:49.773Z,2.27
2018-12-10T08:27:18.675Z,2.40
2018-12-10T08:29:48.710Z,2.27
2018-12-10T08:35:24.052Z,2.23
2018-12-10T08:37:56.475Z,2.17
2018-12-10T08:40:31.343Z,2.70
2018-12-10T08:43:08.973Z,2.87
2018-12-10T08:45:38.577Z,2.70
2018-12-10T08:48:11.438Z,2.60
2018-12-10T08:50:40.122Z,2.97
2018-12-10T08:53:10.378Z,2.70
2018-12-10T08:55:39.923Z,2.93
2018-12-10T08:58:35.787Z,3.37
2018-12-10T09:01:06.097Z,2.83
2018-12-10T09:03:35.214Z,2.90
2018-12-10T09:06:04.173Z,3.07
2018-12-10T09:08:33.903Z,2.87
2018-12-10T09:11:03.582Z,2.50
2018-12-10T09:13:43.952Z,2.90
2018-12-10T09:16:14.133Z,2.40
2018-12-10T09:18:43.967Z,2.43
2018-12-10T09:21:12.835Z,2.47
2018-12-10T09:23:43.739Z,2.40
2018-12-10T09:26:12.637Z,2.87
2018-12-10T09:28:43.704Z,2.30
2018-12-10T09:31:26.791Z,2.30
2018-12-10T09:33:57.778Z,1.70
2018-12-10T09:36:27.327Z,2.00
2018-12-10T09:39:06.346Z,1.60
2018-12-10T09:41:53.688Z,1.87
2018-12-10T09:44:30.268Z,1.80
2018-12-10T09:47:00.242Z,1.80
2018-12-10T09:49:29.033Z,1.50
2018-12-10T09:52:00.226Z,1.50
2018-12-10T09:54:29.723Z,1.93
2018-12-10T09:57:00.595Z,1.87
2018-12-10T09:59:29.602Z,1.70
2018-12-10T10:01:59.162Z,1.80
2018-12-10T10:04:27.759Z,1.30
2018-12-10T10:06:57.110Z,1.70
2018-12-10T10:09:25.590Z,1.77
2018-12-10T10:11:56.249Z,1.90
2018-12-10T10:14:24.715Z,1.97
2018-12-10T10:16:54.792Z,2.20
2018-12-10T10:19:33.335Z,2.60
2018-12-10T10:22:05.462Z,1.70
2018-12-10T10:24:34.423Z,2.07
2018-12-10T10:27:02.886Z,1.60
2018-12-10T10:29:34.787Z,2.40
2018-12-10T10:32:04.399Z,2.03
2018-12-10T10:34:32.862Z,2.10
2018-12-10T10:37:01.314Z,2.00
2018-12-10T10:39:29.783Z,1.90
2018-12-10T10:41:58.228Z,2.03
2018-12-10T10:44:34.621Z,2.40
2018-12-10T10:47:08.444Z,1.80
2018-12-10T10:49:37.435Z,2.40
2018-12-10T10:52:08.753Z,2.87
2018-12-10T10:54:38.536Z,2.10
2018-12-10T10:57:07.386Z,2.10
2018-12-10T10:59:35.856Z,2.17
2018-12-10T11:02:09.935Z,2.07
2018-12-10T11:04:39.433Z,2.30
2018-12-10T11:07:07.884Z,2.17
2018-12-10T11:09:36.806Z,2.30
2018-12-10T11:12:05.536Z,2.37
2018-12-10T11:14:34.325Z,2.03
2018-12-10T11:17:04.624Z,2.40
2018-12-10T11:19:33.133Z,2.23
2018-12-10T11:22:05.594Z,2.30
2018-12-10T11:24:39.522Z,2.33
2018-12-10T11:27:09.675Z,2.00
2018-12-10T11:29:39.860Z,2.33
2018-12-10T11:32:10.292Z,2.30
2018-12-10T11:34:40.633Z,2.10
2018-12-10T11:37:12.889Z,2.20
2018-12-10T11:39:45.661Z,2.13
2018-12-10T11:42:18.514Z,2.70
2018-12-10T11:44:50.206Z,2.90
2018-12-10T11:47:20.849Z,2.23
2018-12-10T11:49:52.969Z,2.30
2018-12-10T11:52:22.040Z,2.33
2018-12-10T11:54:57.823Z,2.23
2018-12-10T11:57:30.459Z,2.47
2018-12-10T12:00:02.167Z,2.17
2018-12-10T12:02:30.732Z,3.20
2018-12-10T12:05:01.886Z,4.90
2018-12-10T12:07:32.652Z,1.93
2018-12-10T12:10:02.264Z,2.40
2018-12-10T12:12:31.428Z,3.00
2018-12-10T12:15:00.189Z,3.07
2018-12-10T12:17:29.479Z,3.17
2018-12-10T12:19:58.649Z,3.30
2018-12-10T12:22:27.109Z,3.07
2018-12-10T12:24:56.387Z,2.27
2018-12-10T12:27:26.919Z,2.40
2018-12-10T12:29:56.510Z,2.73
2018-12-10T12:32:24.992Z,2.60
2018-12-10T12:34:53.657Z,2.10
2018-12-10T12:37:26.813Z,2.30
2018-12-10T12:39:57.403Z,2.47
2018-12-10T12:42:29.309Z,1.90
2018-12-10T12:44:58.493Z,2.17
2018-12-10T12:47:28.956Z,2.10
2018-12-10T12:49:57.546Z,2.30
2018-12-10T12:52:26.439Z,2.37
2018-12-10T12:54:55.263Z,2.27
2018-12-10T12:57:23.716Z,2.33
2018-12-10T12:59:53.738Z,1.97
2018-12-10T13:02:22.526Z,1.40
2018-12-10T13:04:50.957Z,1.60
2018-12-10T13:07:19.621Z,1.80
2018-12-10T13:09:49.612Z,1.90
2018-12-10T13:12:23.221Z,1.73
2018-12-10T13:14:57.511Z,2.47
2018-12-10T13:17:26.364Z,1.30
2018-12-10T13:19:58.401Z,1.90
2018-12-10T13:22:28.665Z,1.93
2018-12-10T13:24:57.089Z,1.83
2018-12-10T13:27:28.119Z,1.70
2018-12-10T13:29:56.576Z,1.53
2018-12-10T13:32:27.078Z,2.10
2018-12-10T13:34:55.535Z,1.80
2018-12-10T13:37:25.514Z,1.80
2018-12-10T13:39:56.069Z,2.67
2018-12-10T13:42:24.705Z,2.63
2018-12-10T13:44:53.933Z,2.13
2018-12-10T13:47:24.805Z,1.63
2018-12-10T13:50:02.423Z,1.70
2018-12-10T13:52:38.132Z,2.00
2018-12-10T13:55:07.460Z,2.13
2018-12-10T13:57:37.632Z,2.73
2018-12-10T14:00:09.010Z,3.07
2018-12-10T14:02:39.225Z,3.57
2018-12-10T14:05:13.283Z,3.80
2018-12-10T14:07:41.991Z,3.90
2018-12-10T14:10:10.491Z,4.57
2018-12-10T14:12:39.735Z,3.60
2018-12-10T14:15:10.992Z,4.30
2018-12-10T14:17:39.726Z,3.63
2018-12-10T14:20:09.705Z,2.10
2018-12-10T14:22:46.095Z,1.80
2018-12-10T14:25:30.341Z,1.40
2018-12-10T14:28:11.761Z,1.10
2018-12-10T14:30:41.072Z,1.10
2018-12-10T14:33:16.982Z,0.87
2018-12-10T14:35:47.249Z,1.00
2018-12-10T14:38:16.641Z,1.40
2018-12-10T14:40:46.717Z,0.90
2018-12-10T14:46:15.174Z,1.53
2018-12-10T14:48:44.683Z,1.00
2018-12-10T14:51:16.059Z,1.20
2018-12-10T14:53:45.748Z,1.17
2018-12-10T14:56:14.634Z,0.97
2018-12-10T14:58:44.254Z,1.30
2018-12-10T15:01:13.134Z,1.40
2018-12-10T15:03:42.950Z,1.10
2018-12-10T15:06:14.614Z,1.30
2018-12-10T15:08:44.747Z,1.20
2018-12-10T15:11:15.672Z,1.40
2018-12-10T15:13:47.943Z,1.60
2018-12-10T15:16:19.667Z,1.93
2018-12-10T15:18:49.098Z,1.70
2018-12-10T15:21:25.148Z,2.00
2018-12-10T15:23:56.657Z,1.90
2018-12-10T15:26:27.583Z,1.73
2018-12-10T15:28:58.190Z,2.13
2018-12-10T15:31:27.935Z,1.97
2018-12-10T15:33:58.606Z,2.23
2018-12-10T15:36:30.117Z,2.37
2018-12-10T15:39:03.285Z,2.50
2018-12-10T15:41:33.071Z,2.07
2018-12-10T15:44:03.828Z,2.10
2018-12-10T15:46:35.193Z,1.77
2018-12-10T15:49:05.660Z,2.00
2018-12-10T15:51:36.418Z,2.37
2018-12-10T15:54:06.029Z,1.77
2018-12-10T15:56:34.560Z,2.07
2018-12-10T15:59:03.045Z,2.60
2018-12-10T16:01:32.327Z,2.50
2018-12-10T16:04:01.041Z,2.77
2018-12-10T16:06:29.960Z,2.97
2018-12-10T16:08:58.877Z,2.87
2018-12-10T16:11:27.325Z,3.00
2018-12-10T16:13:56.343Z,2.50
2018-12-10T16:16:26.386Z,2.50
2018-12-10T16:18:56.960Z,2.70
2018-12-10T16:21:25.389Z,2.60
2018-12-10T16:23:57.303Z,2.20
2018-12-10T16:26:28.680Z,2.63
2018-12-10T16:29:00.900Z,2.83
2018-12-10T16:31:36.581Z,3.10
2018-12-10T16:34:06.157Z,3.00
2018-12-10T16:36:41.124Z,3.10
2018-12-10T16:39:15.247Z,3.00
2018-12-10T16:41:45.349Z,3.10
2018-12-10T16:44:15.199Z,3.40
2018-12-10T16:46:45.371Z,3.23
2018-12-10T16:49:21.373Z,3.53
2018-12-10T16:51:52.420Z,4.07
2018-12-10T16:54:21.722Z,2.90
2018-12-10T16:56:52.391Z,3.97
2018-12-10T16:59:21.135Z,2.93
2018-12-10T17:01:49.641Z,3.63
2018-12-10T17:04:20.150Z,3.23
2018-12-10T17:06:52.389Z,3.83
2018-12-10T17:09:21.190Z,3.40
2018-12-10T17:11:49.848Z,3.00
2018-12-10T17:14:19.009Z,4.00
2018-12-10T17:16:47.651Z,3.20
2018-12-10T17:19:21.631Z,3.50
2018-12-10T17:21:52.939Z,3.60
2018-12-10T17:24:21.961Z,3.70
2018-12-10T17:26:51.373Z,3.67
2018-12-10T17:29:36.258Z,3.63
2018-12-10T17:32:06.771Z,3.60
2018-12-10T17:34:35.237Z,3.73
2018-12-10T17:37:04.175Z,3.27
2018-12-10T17:39:32.847Z,3.90
2018-12-10T17:42:09.080Z,3.40
2018-12-10T17:44:38.514Z,3.27
2018-12-10T17:47:08.863Z,3.33
2018-12-10T17:49:40.342Z,3.40
2018-12-10T17:52:13.836Z,3.23
2018-12-10T17:54:42.643Z,3.67
2018-12-10T17:57:11.772Z,3.77
2018-12-10T17:59:40.933Z,3.93
2018-12-10T18:02:09.686Z,3.80
2018-12-10T18:04:38.435Z,3.67
2018-12-10T18:07:06.872Z,3.50
2018-12-10T18:09:35.588Z,3.23
2018-12-10T18:12:04.271Z,3.27
2018-12-10T18:14:33.738Z,3.00
2018-12-10T18:17:02.233Z,2.37
2018-12-10T18:19:30.679Z,2.70
2018-12-10T18:21:59.160Z,2.83
2018-12-10T18:24:29.356Z,2.00
2018-12-10T18:26:59.219Z,2.33
2018-12-10T18:29:29.778Z,2.47
2018-12-10T18:31:58.576Z,1.73
2018-12-10T18:34:27.516Z,1.73
2018-12-10T18:36:56.949Z,2.00
2018-12-10T18:39:27.432Z,2.10
2018-12-10T18:41:56.524Z,2.20
2018-12-10T18:44:26.158Z,2.63
2018-12-10T18:47:00.619Z,2.10
2018-12-10T18:49:30.152Z,2.20
2018-12-10T18:52:00.070Z,2.13
2018-12-10T18:54:31.425Z,2.60
2018-12-10T18:57:01.139Z,2.63
2018-12-10T18:59:33.040Z,2.53
2018-12-10T19:02:03.633Z,2.43
2018-12-10T19:04:33.763Z,3.13
2018-12-10T19:07:04.079Z,3.73
2018-12-10T19:09:37.716Z,3.10
2018-12-10T19:12:07.818Z,3.30
2018-12-10T19:14:39.182Z,3.67
2018-12-10T19:17:10.583Z,3.60
2018-12-10T19:19:41.222Z,3.70
2018-12-10T19:22:10.663Z,3.53
2018-12-10T19:24:39.851Z,4.00
2018-12-10T19:27:10.200Z,3.60
2018-12-10T19:29:40.852Z,4.50
2018-12-10T19:32:13.934Z,4.63
2018-12-10T19:34:45.296Z,5.20
2018-12-10T19:37:16.581Z,4.77
2018-12-10T19:39:47.334Z,5.53
2018-12-10T19:42:19.082Z,4.83
2018-12-10T19:44:51.435Z,5.70
2018-12-10T19:47:20.247Z,6.00
2018-12-10T19:49:49.963Z,5.67
2018-12-10T19:52:20.927Z,5.60
2018-12-10T19:54:49.916Z,5.87
2018-12-10T19:57:19.585Z,5.70
2018-12-10T19:59:51.452Z,5.73
2018-12-10T20:02:24.603Z,5.90
2018-12-10T20:04:53.485Z,6.40
2018-12-10T20:07:24.028Z,6.27
2018-12-10T20:09:55.831Z,6.50
2018-12-10T20:12:28.152Z,6.03
2018-12-10T20:14:56.583Z,6.07
2018-12-10T20:17:25.019Z,6.17
2018-12-10T20:19:53.757Z,6.27
2018-12-10T20:22:24.237Z,5.47
2018-12-10T20:24:52.684Z,5.80
2018-12-10T20:27:21.244Z,5.37
2018-12-10T20:29:49.958Z,6.03
2018-12-10T20:32:19.466Z,5.90
2018-12-10T20:34:48.158Z,5.70
2018-12-10T20:37:18.043Z,5.77
2018-12-10T20:39:47.436Z,5.90
2018-12-10T20:42:15.895Z,5.93
2018-12-10T20:44:45.630Z,5.30
2018-12-10T20:47:14.077Z,4.80
2018-12-10T20:49:43.949Z,5.27
2018-12-10T20:52:13.848Z,5.33
2018-12-10T20:54:44.226Z,4.60
2018-12-10T20:57:13.854Z,4.57
2018-12-10T20:59:46.900Z,4.77
2018-12-10T21:02:16.162Z,5.10
2018-12-10T21:04:45.630Z,4.40
2018-12-10T21:07:14.484Z,4.07
2018-12-10T21:09:45.278Z,3.90
2018-12-10T21:12:15.677Z,4.20
2018-12-10T21:14:45.680Z,4.47
2018-12-10T21:17:15.528Z,4.23
2018-12-10T21:19:43.990Z,4.77
2018-12-10T21:22:12.991Z,4.50
2018-12-10T21:24:42.270Z,4.53
2018-12-10T21:27:11.184Z,4.53
2018-12-10T21:29:47.479Z,3.57
2018-12-10T21:32:21.147Z,3.80
2018-12-10T21:34:53.675Z,3.33
2018-12-10T21:37:23.022Z,3.80
2018-12-10T21:39:54.768Z,3.40
2018-12-10T21:42:26.719Z,3.33
2018-12-10T21:44:59.583Z,3.20
2018-12-10T21:47:29.882Z,3.50
2018-12-10T21:50:02.102Z,2.90
2018-12-10T21:52:35.863Z,3.27
2018-12-10T21:55:16.869Z,3.50
2018-12-10T21:57:45.354Z,3.60
2018-12-10T22:00:18.526Z,3.40
2018-12-10T22:02:49.291Z,4.00
2018-12-10T22:05:20.762Z,4.40
2018-12-10T22:07:51.434Z,4.13
2018-12-10T22:10:22.201Z,4.00
2018-12-10T22:12:52.678Z,4.57
2018-12-10T22:15:23.728Z,3.77
2018-12-10T22:17:55.791Z,3.83
2018-12-10T22:20:27.387Z,4.77
2018-12-10T22:23:00.207Z,3.60
2018-12-10T22:25:32.324Z,4.47
2018-12-10T22:28:03.781Z,4.27
2018-12-10T22:30:35.719Z,4.40
2018-12-10T22:33:10.619Z,4.23
2018-12-10T22:35:43.089Z,3.70
2018-12-10T22:38:15.031Z,3.93
2018-12-10T22:40:45.834Z,4.10
2018-12-10T22:43:18.101Z,3.40
2018-12-10T22:45:51.967Z,4.10
2018-12-10T22:48:23.404Z,4.20
2018-12-10T22:50:56.422Z,4.03
2018-12-10T22:53:27.938Z,4.23
2018-12-10T22:56:00.515Z,4.50
2018-12-10T22:58:32.910Z,3.70
2018-12-10T23:01:03.689Z,4.23
2018-12-10T23:03:34.344Z,4.33
2018-12-10T23:06:07.014Z,4.90
2018-12-10T23:08:41.568Z,4.17
2018-12-10T23:11:12.704Z,4.07
2018-12-10T23:13:45.202Z,3.87
2018-12-10T23:16:15.685Z,3.73
2018-12-10T23:18:49.582Z,3.67
2018-12-10T23:21:23.486Z,3.63
2018-12-10T23:23:55.706Z,3.20
2018-12-10T23:26:28.884Z,2.90
2018-12-10T23:29:01.308Z,2.77
2018-12-10T23:31:32.416Z,2.33
2018-12-10T23:34:03.369Z,3.33
2018-12-10T23:36:35.576Z,3.30
2018-12-10T23:39:08.797Z,3.70
2018-12-10T23:41:39.899Z,4.10
2018-12-10T23:44:13.940Z,4.00
2018-12-10T23:46:45.937Z,3.37
2018-12-10T23:49:18.282Z,3.73
2018-12-10T23:51:50.026Z,4.17
2018-12-10T23:54:24.947Z,3.57
2018-12-10T23:56:58.221Z,3.97
2018-12-10T23:59:31.261Z,4.20
